Terminal Aerodrome Forecast
Issued by NWS Chicago, IL

Home | Current Version | Previous Version | Graphics & Text | Print | Product List | Glossary On
Versions: 1 2 3 4 5 6 7 8 9 10 11 12 13 14 15 16 17 18 19 20 21 22 23 24 25 26 27 28 29 30
655
FTUS43 KLOT 290806 AAA
TAFRFD
TAF AMD
KRFD 290806Z 2908/3006 11003KT P6SM SCT250
     FM290900 09003KT 4SM BR FEW015 SCT250
     FM291400 11007KT P6SM SCT030 SCT250
     FM291900 15007KT P6SM VCTS SCT030 BKN100CB
     FM300100 12003KT P6SM BKN250=

USA.gov is the U.S. government's official web portal to all federal, state and local government web resources and services.